sensor_id;sensor_type;location;lat;lon;timestamp;P1;durP1;ratioP1;P2;durP2;ratioP2
1366;SDS011;16877;48.810;9.282;2023-04-15T00:01:08;6.00;;;3.30;;
1366;SDS011;16877;48.810;9.282;2023-04-15T00:03:36;5.40;;;3.30;;
1366;SDS011;16877;48.810;9.282;2023-04-15T00:06:03;7.10;;;4.10;;
1366;SDS011;16877;48.810;9.282;2023-04-15T00:08:33;4.30;;;3.33;;
1366;SDS011;16877;48.810;9.282;2023-04-15T00:11:02;5.23;;;3.10;;
1366;SDS011;16877;48.810;9.282;2023-04-15T00:13:30;4.93;;;3.50;;
1366;SDS011;16877;48.810;9.282;2023-04-15T00:15:59;5.00;;;3.50;;
1366;SDS011;16877;48.810;9.282;2023-04-15T00:18:26;5.73;;;3.40;;
1366;SDS011;16877;48.810;9.282;2023-04-15T00:20:53;5.60;;;3.30;;
1366;SDS011;16877;48.810;9.282;2023-04-15T00:23:21;4.53;;;2.90;;
1366;SDS011;16877;48.810;9.282;2023-04-15T00:25:50;4.60;;;3.00;;
1366;SDS011;16877;48.810;9.282;2023-04-15T00:28:18;4.60;;;3.53;;
1366;SDS011;16877;48.810;9.282;2023-04-15T00:30:45;4.40;;;3.57;;
1366;SDS011;16877;48.810;9.282;2023-04-15T00:33:13;7.80;;;3.80;;
1366;SDS011;16877;48.810;9.282;2023-04-15T00:35:40;6.37;;;3.40;;
1366;SDS011;16877;48.810;9.282;2023-04-15T00:38:08;5.43;;;3.63;;
1366;SDS011;16877;48.810;9.282;2023-04-15T00:40:38;4.20;;;2.93;;
1366;SDS011;16877;48.810;9.282;2023-04-15T00:43:09;5.70;;;3.40;;
1366;SDS011;16877;48.810;9.282;2023-04-15T00:45:36;5.80;;;3.27;;
1366;SDS011;16877;48.810;9.282;2023-04-15T00:48:18;4.43;;;3.10;;
1366;SDS011;16877;48.810;9.282;2023-04-15T00:50:46;4.27;;;2.90;;
1366;SDS011;16877;48.810;9.282;2023-04-15T00:53:14;3.90;;;2.90;;
1366;SDS011;16877;48.810;9.282;2023-04-15T00:55:41;5.53;;;2.87;;
1366;SDS011;16877;48.810;9.282;2023-04-15T00:58:11;3.70;;;3.07;;
1366;SDS011;16877;48.810;9.282;2023-04-15T01:00:38;5.17;;;2.90;;
1366;SDS011;16877;48.810;9.282;2023-04-15T01:03:06;6.03;;;4.10;;
1366;SDS011;16877;48.810;9.282;2023-04-15T01:05:33;4.17;;;3.07;;
1366;SDS011;16877;48.810;9.282;2023-04-15T01:08:04;5.20;;;3.20;;
1366;SDS011;16877;48.810;9.282;2023-04-15T01:10:31;4.30;;;3.33;;
1366;SDS011;16877;48.810;9.282;2023-04-15T01:12:59;4.30;;;3.60;;
1366;SDS011;16877;48.810;9.282;2023-04-15T01:15:30;3.90;;;2.40;;
1366;SDS011;16877;48.810;9.282;2023-04-15T01:17:58;6.47;;;3.23;;
1366;SDS011;16877;48.810;9.282;2023-04-15T01:20:26;4.93;;;3.00;;
1366;SDS011;16877;48.810;9.282;2023-04-15T01:22:54;5.30;;;3.37;;
1366;SDS011;16877;48.810;9.282;2023-04-15T01:25:27;4.10;;;2.67;;
1366;SDS011;16877;48.810;9.282;2023-04-15T01:27:57;5.10;;;3.87;;
1366;SDS011;16877;48.810;9.282;2023-04-15T01:30:25;5.10;;;3.30;;
1366;SDS011;16877;48.810;9.282;2023-04-15T01:32:52;4.77;;;2.90;;
1366;SDS011;16877;48.810;9.282;2023-04-15T01:35:21;7.60;;;3.43;;
1366;SDS011;16877;48.810;9.282;2023-04-15T01:37:49;4.90;;;3.30;;
1366;SDS011;16877;48.810;9.282;2023-04-15T01:40:19;4.43;;;2.90;;
1366;SDS011;16877;48.810;9.282;2023-04-15T01:42:48;4.57;;;3.00;;
1366;SDS011;16877;48.810;9.282;2023-04-15T01:45:16;5.47;;;3.07;;
1366;SDS011;16877;48.810;9.282;2023-04-15T01:47:43;4.40;;;3.43;;
1366;SDS011;16877;48.810;9.282;2023-04-15T01:50:11;4.80;;;3.43;;
1366;SDS011;16877;48.810;9.282;2023-04-15T01:52:41;6.00;;;3.00;;
1366;SDS011;16877;48.810;9.282;2023-04-15T01:55:11;5.53;;;2.97;;
1366;SDS011;16877;48.810;9.282;2023-04-15T01:57:38;4.47;;;3.17;;
1366;SDS011;16877;48.810;9.282;2023-04-15T02:00:09;6.10;;;4.03;;
1366;SDS011;16877;48.810;9.282;2023-04-15T02:02:37;4.40;;;2.90;;
1366;SDS011;16877;48.810;9.282;2023-04-15T02:05:05;3.50;;;2.70;;
1366;SDS011;16877;48.810;9.282;2023-04-15T02:07:32;4.87;;;3.03;;
1366;SDS011;16877;48.810;9.282;2023-04-15T02:10:00;4.70;;;3.10;;
1366;SDS011;16877;48.810;9.282;2023-04-15T02:12:28;5.30;;;3.20;;
1366;SDS011;16877;48.810;9.282;2023-04-15T02:14:55;4.17;;;3.20;;
1366;SDS011;16877;48.810;9.282;2023-04-15T02:17:24;5.07;;;3.50;;
1366;SDS011;16877;48.810;9.282;2023-04-15T02:19:52;9.60;;;3.77;;
1366;SDS011;16877;48.810;9.282;2023-04-15T02:22:21;4.33;;;3.13;;
1366;SDS011;16877;48.810;9.282;2023-04-15T02:24:49;4.67;;;3.07;;
1366;SDS011;16877;48.810;9.282;2023-04-15T02:27:16;3.70;;;2.77;;
1366;SDS011;16877;48.810;9.282;2023-04-15T02:29:46;7.67;;;4.33;;
1366;SDS011;16877;48.810;9.282;2023-04-15T02:32:15;6.60;;;3.57;;
1366;SDS011;16877;48.810;9.282;2023-04-15T02:34:44;4.10;;;3.23;;
1366;SDS011;16877;48.810;9.282;2023-04-15T02:37:13;4.07;;;3.27;;
1366;SDS011;16877;48.810;9.282;2023-04-15T02:39:41;6.70;;;3.83;;
1366;SDS011;16877;48.810;9.282;2023-04-15T02:42:08;4.80;;;3.03;;
1366;SDS011;16877;48.810;9.282;2023-04-15T02:44:37;3.80;;;3.07;;
1366;SDS011;16877;48.810;9.282;2023-04-15T02:47:04;4.83;;;3.20;;
1366;SDS011;16877;48.810;9.282;2023-04-15T02:49:32;4.40;;;3.10;;
1366;SDS011;16877;48.810;9.282;2023-04-15T02:52:02;6.80;;;3.27;;
1366;SDS011;16877;48.810;9.282;2023-04-15T02:54:30;3.50;;;2.70;;
1366;SDS011;16877;48.810;9.282;2023-04-15T02:56:58;4.67;;;3.00;;
1366;SDS011;16877;48.810;9.282;2023-04-15T02:59:25;4.40;;;2.93;;
1366;SDS011;16877;48.810;9.282;2023-04-15T03:01:53;4.43;;;3.00;;
1366;SDS011;16877;48.810;9.282;2023-04-15T03:04:25;5.17;;;3.03;;
1366;SDS011;16877;48.810;9.282;2023-04-15T03:06:54;3.67;;;2.70;;
1366;SDS011;16877;48.810;9.282;2023-04-15T03:09:23;3.50;;;2.53;;
1366;SDS011;16877;48.810;9.282;2023-04-15T03:11:51;3.33;;;2.43;;
1366;SDS011;16877;48.810;9.282;2023-04-15T03:14:18;4.77;;;3.60;;
1366;SDS011;16877;48.810;9.282;2023-04-15T03:16:46;5.20;;;3.10;;
1366;SDS011;16877;48.810;9.282;2023-04-15T03:19:16;4.23;;;3.27;;
1366;SDS011;16877;48.810;9.282;2023-04-15T03:21:44;3.90;;;2.67;;
1366;SDS011;16877;48.810;9.282;2023-04-15T03:24:11;4.20;;;2.67;;
1366;SDS011;16877;48.810;9.282;2023-04-15T03:26:41;3.47;;;2.70;;
1366;SDS011;16877;48.810;9.282;2023-04-15T03:29:09;4.33;;;2.53;;
1366;SDS011;16877;48.810;9.282;2023-04-15T03:31:37;5.10;;;3.27;;
1366;SDS011;16877;48.810;9.282;2023-04-15T03:34:04;3.90;;;2.97;;
1366;SDS011;16877;48.810;9.282;2023-04-15T03:36:31;4.27;;;3.00;;
1366;SDS011;16877;48.810;9.282;2023-04-15T03:38:59;4.20;;;3.10;;
1366;SDS011;16877;48.810;9.282;2023-04-15T03:41:27;4.33;;;2.93;;
1366;SDS011;16877;48.810;9.282;2023-04-15T03:43:56;4.57;;;3.10;;
1366;SDS011;16877;48.810;9.282;2023-04-15T03:46:23;4.67;;;3.30;;
1366;SDS011;16877;48.810;9.282;2023-04-15T03:48:52;5.33;;;3.00;;
1366;SDS011;16877;48.810;9.282;2023-04-15T03:51:19;3.87;;;3.30;;
1366;SDS011;16877;48.810;9.282;2023-04-15T03:53:46;4.50;;;3.03;;
1366;SDS011;16877;48.810;9.282;2023-04-15T03:56:14;4.40;;;2.93;;
1366;SDS011;16877;48.810;9.282;2023-04-15T03:58:41;8.27;;;3.60;;
1366;SDS011;16877;48.810;9.282;2023-04-15T04:01:11;3.87;;;2.77;;
1366;SDS011;16877;48.810;9.282;2023-04-15T04:03:39;5.50;;;3.43;;
1366;SDS011;16877;48.810;9.282;2023-04-15T04:06:06;4.57;;;2.97;;
1366;SDS011;16877;48.810;9.282;2023-04-15T04:08:34;5.00;;;2.97;;
1366;SDS011;16877;48.810;9.282;2023-04-15T04:11:02;3.73;;;2.80;;
1366;SDS011;16877;48.810;9.282;2023-04-15T04:13:30;5.30;;;3.30;;
1366;SDS011;16877;48.810;9.282;2023-04-15T04:16:00;5.00;;;3.20;;
1366;SDS011;16877;48.810;9.282;2023-04-15T04:18:30;5.10;;;3.30;;
1366;SDS011;16877;48.810;9.282;2023-04-15T04:21:01;5.30;;;3.00;;
1366;SDS011;16877;48.810;9.282;2023-04-15T04:23:29;4.00;;;2.50;;
1366;SDS011;16877;48.810;9.282;2023-04-15T04:25:57;4.83;;;3.30;;
1366;SDS011;16877;48.810;9.282;2023-04-15T04:28:25;4.47;;;2.63;;
1366;SDS011;16877;48.810;9.282;2023-04-15T04:30:52;4.50;;;3.50;;
1366;SDS011;16877;48.810;9.282;2023-04-15T04:33:20;3.50;;;2.80;;
1366;SDS011;16877;48.810;9.282;2023-04-15T04:35:49;5.83;;;3.60;;
1366;SDS011;16877;48.810;9.282;2023-04-15T04:38:17;4.37;;;3.10;;
1366;SDS011;16877;48.810;9.282;2023-04-15T04:40:45;4.30;;;3.00;;
1366;SDS011;16877;48.810;9.282;2023-04-15T04:43:12;5.63;;;3.20;;
1366;SDS011;16877;48.810;9.282;2023-04-15T04:45:50;5.80;;;2.60;;
1366;SDS011;16877;48.810;9.282;2023-04-15T04:48:17;5.73;;;3.10;;
1366;SDS011;16877;48.810;9.282;2023-04-15T04:50:45;7.70;;;3.30;;
1366;SDS011;16877;48.810;9.282;2023-04-15T04:53:19;4.40;;;3.07;;
1366;SDS011;16877;48.810;9.282;2023-04-15T04:55:46;4.87;;;2.67;;
1366;SDS011;16877;48.810;9.282;2023-04-15T04:58:14;3.90;;;2.63;;
1366;SDS011;16877;48.810;9.282;2023-04-15T05:00:53;6.43;;;3.20;;
1366;SDS011;16877;48.810;9.282;2023-04-15T05:03:28;4.37;;;3.13;;
1366;SDS011;16877;48.810;9.282;2023-04-15T05:06:07;5.17;;;3.13;;
1366;SDS011;16877;48.810;9.282;2023-04-15T05:09:12;4.33;;;2.50;;
1366;SDS011;16877;48.810;9.282;2023-04-15T05:11:48;7.63;;;3.43;;
1366;SDS011;16877;48.810;9.282;2023-04-15T05:14:29;4.87;;;2.90;;
1366;SDS011;16877;48.810;9.282;2023-04-15T05:17:05;3.53;;;2.20;;
1366;SDS011;16877;48.810;9.282;2023-04-15T05:19:38;4.90;;;3.13;;
1366;SDS011;16877;48.810;9.282;2023-04-15T05:22:06;4.87;;;3.50;;
1366;SDS011;16877;48.810;9.282;2023-04-15T05:24:45;3.80;;;3.13;;
1366;SDS011;16877;48.810;9.282;2023-04-15T05:27:12;4.67;;;3.00;;
1366;SDS011;16877;48.810;9.282;2023-04-15T05:29:41;4.60;;;3.43;;
1366;SDS011;16877;48.810;9.282;2023-04-15T05:32:11;4.23;;;3.23;;
1366;SDS011;16877;48.810;9.282;2023-04-15T05:34:40;7.57;;;3.80;;
1366;SDS011;16877;48.810;9.282;2023-04-15T05:37:08;5.20;;;3.37;;
1366;SDS011;16877;48.810;9.282;2023-04-15T05:39:37;5.60;;;3.47;;
1366;SDS011;16877;48.810;9.282;2023-04-15T05:42:08;3.90;;;3.33;;
1366;SDS011;16877;48.810;9.282;2023-04-15T05:44:36;4.90;;;3.33;;
1366;SDS011;16877;48.810;9.282;2023-04-15T05:47:07;3.77;;;3.10;;
1366;SDS011;16877;48.810;9.282;2023-04-15T05:49:41;3.70;;;3.30;;
1366;SDS011;16877;48.810;9.282;2023-04-15T05:52:15;7.47;;;4.00;;
1366;SDS011;16877;48.810;9.282;2023-04-15T05:54:44;5.03;;;3.27;;
1366;SDS011;16877;48.810;9.282;2023-04-15T05:57:12;4.87;;;3.37;;
1366;SDS011;16877;48.810;9.282;2023-04-15T05:59:44;5.30;;;3.20;;
1366;SDS011;16877;48.810;9.282;2023-04-15T06:02:14;4.47;;;3.40;;
1366;SDS011;16877;48.810;9.282;2023-04-15T06:04:41;4.53;;;3.60;;
1366;SDS011;16877;48.810;9.282;2023-04-15T06:07:09;7.10;;;3.60;;
1366;SDS011;16877;48.810;9.282;2023-04-15T06:09:44;3.93;;;3.40;;
1366;SDS011;16877;48.810;9.282;2023-04-15T06:12:13;4.80;;;3.30;;
1366;SDS011;16877;48.810;9.282;2023-04-15T06:14:42;4.70;;;3.60;;
1366;SDS011;16877;48.810;9.282;2023-04-15T06:17:11;3.97;;;3.20;;
1366;SDS011;16877;48.810;9.282;2023-04-15T06:19:43;4.60;;;3.53;;
1366;SDS011;16877;48.810;9.282;2023-04-15T06:22:27;6.83;;;4.07;;
1366;SDS011;16877;48.810;9.282;2023-04-15T06:25:17;5.17;;;3.63;;
1366;SDS011;16877;48.810;9.282;2023-04-15T06:27:50;4.47;;;3.57;;
1366;SDS011;16877;48.810;9.282;2023-04-15T06:30:17;6.30;;;3.67;;
1366;SDS011;16877;48.810;9.282;2023-04-15T06:32:45;5.60;;;3.60;;
1366;SDS011;16877;48.810;9.282;2023-04-15T06:35:13;4.53;;;3.80;;
1366;SDS011;16877;48.810;9.282;2023-04-15T06:37:51;6.20;;;3.90;;
1366;SDS011;16877;48.810;9.282;2023-04-15T06:40:21;4.73;;;4.23;;
1366;SDS011;16877;48.810;9.282;2023-04-15T06:42:50;6.80;;;4.40;;
1366;SDS011;16877;48.810;9.282;2023-04-15T06:45:22;4.87;;;3.67;;
1366;SDS011;16877;48.810;9.282;2023-04-15T06:47:51;5.30;;;4.43;;
1366;SDS011;16877;48.810;9.282;2023-04-15T06:50:20;6.77;;;4.63;;
1366;SDS011;16877;48.810;9.282;2023-04-15T06:52:57;5.87;;;3.63;;
1366;SDS011;16877;48.810;9.282;2023-04-15T06:55:26;6.13;;;3.90;;
1366;SDS011;16877;48.810;9.282;2023-04-15T06:57:54;2.10;;;1.37;;
1366;SDS011;16877;48.810;9.282;2023-04-15T07:00:23;3.33;;;1.90;;
1366;SDS011;16877;48.810;9.282;2023-04-15T07:02:52;4.37;;;1.97;;
1366;SDS011;16877;48.810;9.282;2023-04-15T07:05:22;3.37;;;1.90;;
1366;SDS011;16877;48.810;9.282;2023-04-15T07:07:59;4.20;;;2.20;;
1366;SDS011;16877;48.810;9.282;2023-04-15T07:10:39;2.73;;;1.40;;
1366;SDS011;16877;48.810;9.282;2023-04-15T07:13:14;4.13;;;2.23;;
1366;SDS011;16877;48.810;9.282;2023-04-15T07:15:41;3.17;;;2.37;;
1366;SDS011;16877;48.810;9.282;2023-04-15T07:18:09;4.00;;;3.30;;
1366;SDS011;16877;48.810;9.282;2023-04-15T07:20:38;5.27;;;3.33;;
1366;SDS011;16877;48.810;9.282;2023-04-15T07:23:12;4.43;;;2.97;;
1366;SDS011;16877;48.810;9.282;2023-04-15T07:25:50;6.63;;;4.40;;
1366;SDS011;16877;48.810;9.282;2023-04-15T07:28:28;5.57;;;3.63;;
1366;SDS011;16877;48.810;9.282;2023-04-15T07:30:56;5.70;;;3.90;;
1366;SDS011;16877;48.810;9.282;2023-04-15T07:33:24;6.77;;;3.97;;
1366;SDS011;16877;48.810;9.282;2023-04-15T07:35:54;6.50;;;4.20;;
1366;SDS011;16877;48.810;9.282;2023-04-15T07:38:22;5.17;;;4.30;;
1366;SDS011;16877;48.810;9.282;2023-04-15T07:40:58;6.00;;;4.03;;
1366;SDS011;16877;48.810;9.282;2023-04-15T07:43:25;6.20;;;3.83;;
1366;SDS011;16877;48.810;9.282;2023-04-15T07:45:53;5.20;;;3.73;;
1366;SDS011;16877;48.810;9.282;2023-04-15T07:48:22;6.77;;;4.27;;
1366;SDS011;16877;48.810;9.282;2023-04-15T07:50:54;5.50;;;3.87;;
1366;SDS011;16877;48.810;9.282;2023-04-15T07:53:32;5.60;;;3.73;;
1366;SDS011;16877;48.810;9.282;2023-04-15T07:56:01;6.23;;;4.10;;
1366;SDS011;16877;48.810;9.282;2023-04-15T07:58:34;5.13;;;3.70;;
1366;SDS011;16877;48.810;9.282;2023-04-15T08:01:20;4.20;;;3.40;;
1366;SDS011;16877;48.810;9.282;2023-04-15T08:03:55;6.50;;;4.40;;
1366;SDS011;16877;48.810;9.282;2023-04-15T08:06:27;5.50;;;3.40;;
1366;SDS011;16877;48.810;9.282;2023-04-15T08:08:58;4.20;;;2.83;;
1366;SDS011;16877;48.810;9.282;2023-04-15T08:11:29;4.00;;;2.93;;
1366;SDS011;16877;48.810;9.282;2023-04-15T08:14:05;5.77;;;3.10;;
1366;SDS011;16877;48.810;9.282;2023-04-15T08:16:40;4.17;;;3.50;;
1366;SDS011;16877;48.810;9.282;2023-04-15T08:19:15;7.27;;;3.87;;
1366;SDS011;16877;48.810;9.282;2023-04-15T08:21:45;5.40;;;3.73;;
1366;SDS011;16877;48.810;9.282;2023-04-15T08:24:25;6.50;;;3.70;;
1366;SDS011;16877;48.810;9.282;2023-04-15T08:27:13;4.90;;;3.60;;
1366;SDS011;16877;48.810;9.282;2023-04-15T08:29:46;5.50;;;3.20;;
1366;SDS011;16877;48.810;9.282;2023-04-15T08:32:28;6.17;;;3.50;;
1366;SDS011;16877;48.810;9.282;2023-04-15T08:34:56;6.70;;;3.80;;
1366;SDS011;16877;48.810;9.282;2023-04-15T08:37:24;5.93;;;3.37;;
1366;SDS011;16877;48.810;9.282;2023-04-15T08:39:56;5.43;;;3.47;;
1366;SDS011;16877;48.810;9.282;2023-04-15T08:42:27;3.80;;;3.00;;
1366;SDS011;16877;48.810;9.282;2023-04-15T08:44:57;6.23;;;3.57;;
1366;SDS011;16877;48.810;9.282;2023-04-15T08:47:25;4.00;;;2.80;;
1366;SDS011;16877;48.810;9.282;2023-04-15T08:49:56;4.73;;;2.73;;
1366;SDS011;16877;48.810;9.282;2023-04-15T08:52:25;4.10;;;2.73;;
1366;SDS011;16877;48.810;9.282;2023-04-15T08:54:53;3.83;;;2.40;;
1366;SDS011;16877;48.810;9.282;2023-04-15T08:57:25;5.20;;;2.77;;
1366;SDS011;16877;48.810;9.282;2023-04-15T08:59:54;5.40;;;3.20;;
1366;SDS011;16877;48.810;9.282;2023-04-15T09:02:22;5.20;;;2.90;;
1366;SDS011;16877;48.810;9.282;2023-04-15T09:04:49;4.03;;;2.80;;
1366;SDS011;16877;48.810;9.282;2023-04-15T09:07:17;4.50;;;1.90;;
1366;SDS011;16877;48.810;9.282;2023-04-15T09:10:00;5.33;;;3.23;;
1366;SDS011;16877;48.810;9.282;2023-04-15T09:12:34;5.00;;;3.10;;
1366;SDS011;16877;48.810;9.282;2023-04-15T09:15:03;6.43;;;3.10;;
1366;SDS011;16877;48.810;9.282;2023-04-15T09:17:32;6.60;;;3.83;;
1366;SDS011;16877;48.810;9.282;2023-04-15T09:20:06;5.93;;;3.23;;
1366;SDS011;16877;48.810;9.282;2023-04-15T09:22:34;5.70;;;3.50;;
1366;SDS011;16877;48.810;9.282;2023-04-15T09:25:02;9.77;;;4.00;;
1366;SDS011;16877;48.810;9.282;2023-04-15T09:27:30;5.63;;;3.40;;
1366;SDS011;16877;48.810;9.282;2023-04-15T09:30:14;4.90;;;3.07;;
1366;SDS011;16877;48.810;9.282;2023-04-15T09:32:47;4.60;;;3.57;;
1366;SDS011;16877;48.810;9.282;2023-04-15T09:35:15;5.93;;;3.80;;
1366;SDS011;16877;48.810;9.282;2023-04-15T09:37:43;4.30;;;3.30;;
1366;SDS011;16877;48.810;9.282;2023-04-15T09:40:11;4.63;;;3.30;;
1366;SDS011;16877;48.810;9.282;2023-04-15T09:42:54;5.37;;;3.13;;
1366;SDS011;16877;48.810;9.282;2023-04-15T09:45:22;7.80;;;3.20;;
1366;SDS011;16877;48.810;9.282;2023-04-15T09:47:50;4.60;;;3.20;;
1366;SDS011;16877;48.810;9.282;2023-04-15T09:50:18;6.27;;;2.83;;
1366;SDS011;16877;48.810;9.282;2023-04-15T09:52:46;4.47;;;2.80;;
1366;SDS011;16877;48.810;9.282;2023-04-15T09:55:13;6.03;;;3.10;;
1366;SDS011;16877;48.810;9.282;2023-04-15T09:57:44;4.10;;;2.47;;
1366;SDS011;16877;48.810;9.282;2023-04-15T10:00:15;5.50;;;2.97;;
1366;SDS011;16877;48.810;9.282;2023-04-15T10:02:44;3.57;;;2.57;;
1366;SDS011;16877;48.810;9.282;2023-04-15T10:05:14;3.87;;;2.73;;
1366;SDS011;16877;48.810;9.282;2023-04-15T10:07:42;3.40;;;2.30;;
1366;SDS011;16877;48.810;9.282;2023-04-15T10:10:10;3.80;;;2.37;;
1366;SDS011;16877;48.810;9.282;2023-04-15T10:12:39;3.90;;;2.90;;
1366;SDS011;16877;48.810;9.282;2023-04-15T10:15:08;3.87;;;2.70;;
1366;SDS011;16877;48.810;9.282;2023-04-15T10:17:42;5.27;;;3.30;;
1366;SDS011;16877;48.810;9.282;2023-04-15T10:20:11;4.40;;;2.87;;
1366;SDS011;16877;48.810;9.282;2023-04-15T10:22:40;3.90;;;2.43;;
1366;SDS011;16877;48.810;9.282;2023-04-15T10:25:09;2.90;;;1.93;;
1366;SDS011;16877;48.810;9.282;2023-04-15T10:27:38;4.67;;;2.60;;
1366;SDS011;16877;48.810;9.282;2023-04-15T10:30:07;3.27;;;2.03;;
1366;SDS011;16877;48.810;9.282;2023-04-15T10:32:37;2.80;;;2.07;;
1366;SDS011;16877;48.810;9.282;2023-04-15T10:35:05;3.50;;;2.40;;
1366;SDS011;16877;48.810;9.282;2023-04-15T10:37:34;5.17;;;2.20;;
1366;SDS011;16877;48.810;9.282;2023-04-15T10:40:24;3.63;;;2.07;;
1366;SDS011;16877;48.810;9.282;2023-04-15T10:43:08;3.50;;;2.40;;
1366;SDS011;16877;48.810;9.282;2023-04-15T10:45:51;4.50;;;2.13;;
1366;SDS011;16877;48.810;9.282;2023-04-15T10:48:23;5.80;;;3.00;;
1366;SDS011;16877;48.810;9.282;2023-04-15T10:50:54;3.90;;;2.53;;
1366;SDS011;16877;48.810;9.282;2023-04-15T10:53:25;6.40;;;2.47;;
1366;SDS011;16877;48.810;9.282;2023-04-15T10:55:54;6.33;;;2.50;;
1366;SDS011;16877;48.810;9.282;2023-04-15T10:58:22;3.33;;;1.90;;
1366;SDS011;16877;48.810;9.282;2023-04-15T11:00:50;4.27;;;2.33;;
1366;SDS011;16877;48.810;9.282;2023-04-15T11:03:32;3.93;;;2.70;;
1366;SDS011;16877;48.810;9.282;2023-04-15T11:06:06;3.90;;;2.23;;
1366;SDS011;16877;48.810;9.282;2023-04-15T11:11:22;5.40;;;2.90;;
1366;SDS011;16877;48.810;9.282;2023-04-15T11:14:13;3.37;;;2.30;;
1366;SDS011;16877;48.810;9.282;2023-04-15T11:16:41;4.80;;;2.87;;
1366;SDS011;16877;48.810;9.282;2023-04-15T11:19:11;4.33;;;2.50;;
1366;SDS011;16877;48.810;9.282;2023-04-15T11:21:38;5.00;;;2.60;;
1366;SDS011;16877;48.810;9.282;2023-04-15T11:24:04;4.73;;;2.60;;
1366;SDS011;16877;48.810;9.282;2023-04-15T11:26:46;4.97;;;3.03;;
1366;SDS011;16877;48.810;9.282;2023-04-15T11:29:16;5.17;;;2.77;;
1366;SDS011;16877;48.810;9.282;2023-04-15T11:31:45;5.30;;;3.30;;
1366;SDS011;16877;48.810;9.282;2023-04-15T11:34:19;4.00;;;2.63;;
1366;SDS011;16877;48.810;9.282;2023-04-15T11:36:48;4.50;;;2.53;;
1366;SDS011;16877;48.810;9.282;2023-04-15T11:39:28;4.97;;;2.93;;
1366;SDS011;16877;48.810;9.282;2023-04-15T11:42:00;4.67;;;2.80;;
1366;SDS011;16877;48.810;9.282;2023-04-15T11:45:05;4.70;;;2.67;;
1366;SDS011;16877;48.810;9.282;2023-04-15T11:47:36;5.90;;;3.60;;
1366;SDS011;16877;48.810;9.282;2023-04-15T11:50:17;4.50;;;3.10;;
1366;SDS011;16877;48.810;9.282;2023-04-15T11:52:53;5.40;;;3.20;;
1366;SDS011;16877;48.810;9.282;2023-04-15T11:55:32;4.07;;;2.40;;
1366;SDS011;16877;48.810;9.282;2023-04-15T11:58:12;4.93;;;2.90;;
1366;SDS011;16877;48.810;9.282;2023-04-15T12:00:47;3.70;;;2.60;;
1366;SDS011;16877;48.810;9.282;2023-04-15T12:03:24;3.53;;;2.60;;
1366;SDS011;16877;48.810;9.282;2023-04-15T12:09:08;3.73;;;2.40;;
1366;SDS011;16877;48.810;9.282;2023-04-15T12:11:56;5.00;;;2.50;;
1366;SDS011;16877;48.810;9.282;2023-04-15T12:14:24;4.43;;;2.70;;
1366;SDS011;16877;48.810;9.282;2023-04-15T12:16:54;5.23;;;2.43;;
1366;SDS011;16877;48.810;9.282;2023-04-15T12:19:30;3.80;;;2.67;;
1366;SDS011;16877;48.810;9.282;2023-04-15T12:22:11;4.90;;;2.80;;
1366;SDS011;16877;48.810;9.282;2023-04-15T12:24:44;3.20;;;2.10;;
1366;SDS011;16877;48.810;9.282;2023-04-15T12:27:13;6.40;;;2.60;;
1366;SDS011;16877;48.810;9.282;2023-04-15T12:29:43;3.27;;;2.47;;
1366;SDS011;16877;48.810;9.282;2023-04-15T12:32:17;5.63;;;2.70;;
1366;SDS011;16877;48.810;9.282;2023-04-15T12:34:50;3.80;;;2.40;;
1366;SDS011;16877;48.810;9.282;2023-04-15T12:37:29;3.07;;;2.63;;
1366;SDS011;16877;48.810;9.282;2023-04-15T12:40:00;4.33;;;2.80;;
1366;SDS011;16877;48.810;9.282;2023-04-15T12:42:36;4.50;;;3.17;;
1366;SDS011;16877;48.810;9.282;2023-04-15T12:45:31;4.90;;;3.23;;
1366;SDS011;16877;48.810;9.282;2023-04-15T12:47:59;4.17;;;2.67;;
1366;SDS011;16877;48.810;9.282;2023-04-15T12:50:27;4.77;;;2.73;;
1366;SDS011;16877;48.810;9.282;2023-04-15T12:52:59;3.40;;;2.50;;
1366;SDS011;16877;48.810;9.282;2023-04-15T12:55:38;3.40;;;2.20;;
1366;SDS011;16877;48.810;9.282;2023-04-15T12:58:06;3.43;;;2.27;;
1366;SDS011;16877;48.810;9.282;2023-04-15T13:00:39;3.70;;;2.20;;
1366;SDS011;16877;48.810;9.282;2023-04-15T13:03:12;2.87;;;1.90;;
1366;SDS011;16877;48.810;9.282;2023-04-15T13:05:42;3.30;;;1.90;;
1366;SDS011;16877;48.810;9.282;2023-04-15T13:08:19;5.23;;;2.00;;
1366;SDS011;16877;48.810;9.282;2023-04-15T13:10:48;3.33;;;2.10;;
1366;SDS011;16877;48.810;9.282;2023-04-15T13:13:20;3.33;;;2.17;;
1366;SDS011;16877;48.810;9.282;2023-04-15T13:15:50;4.83;;;3.13;;
1366;SDS011;16877;48.810;9.282;2023-04-15T13:18:24;8.63;;;4.50;;
1366;SDS011;16877;48.810;9.282;2023-04-15T13:20:55;7.30;;;3.60;;
1366;SDS011;16877;48.810;9.282;2023-04-15T13:23:24;5.40;;;3.47;;
1366;SDS011;16877;48.810;9.282;2023-04-15T13:25:59;12.87;;;5.80;;
1366;SDS011;16877;48.810;9.282;2023-04-15T13:28:35;17.73;;;6.90;;
1366;SDS011;16877;48.810;9.282;2023-04-15T13:31:06;7.60;;;4.10;;
1366;SDS011;16877;48.810;9.282;2023-04-15T13:33:36;6.67;;;3.60;;
1366;SDS011;16877;48.810;9.282;2023-04-15T13:36:04;4.03;;;2.20;;
1366;SDS011;16877;48.810;9.282;2023-04-15T13:38:36;3.17;;;1.90;;
1366;SDS011;16877;48.810;9.282;2023-04-15T13:41:03;5.00;;;2.30;;
1366;SDS011;16877;48.810;9.282;2023-04-15T13:43:32;5.17;;;2.10;;
1366;SDS011;16877;48.810;9.282;2023-04-15T13:46:01;2.30;;;1.40;;
1366;SDS011;16877;48.810;9.282;2023-04-15T13:48:31;3.10;;;1.60;;
1366;SDS011;16877;48.810;9.282;2023-04-15T13:50:59;2.70;;;1.57;;
1366;SDS011;16877;48.810;9.282;2023-04-15T13:53:49;3.50;;;2.07;;
1366;SDS011;16877;48.810;9.282;2023-04-15T13:56:18;4.67;;;1.27;;
1366;SDS011;16877;48.810;9.282;2023-04-15T13:58:53;3.63;;;1.47;;
1366;SDS011;16877;48.810;9.282;2023-04-15T14:01:23;2.83;;;1.40;;
1366;SDS011;16877;48.810;9.282;2023-04-15T14:03:51;3.63;;;1.10;;
1366;SDS011;16877;48.810;9.282;2023-04-15T14:06:18;2.67;;;1.10;;
1366;SDS011;16877;48.810;9.282;2023-04-15T14:08:45;2.13;;;0.90;;
1366;SDS011;16877;48.810;9.282;2023-04-15T14:11:15;2.47;;;1.30;;
1366;SDS011;16877;48.810;9.282;2023-04-15T14:13:42;2.40;;;1.00;;
1366;SDS011;16877;48.810;9.282;2023-04-15T14:16:10;2.03;;;0.90;;
1366;SDS011;16877;48.810;9.282;2023-04-15T14:18:42;2.57;;;0.90;;
1366;SDS011;16877;48.810;9.282;2023-04-15T14:21:11;8.30;;;3.70;;
1366;SDS011;16877;48.810;9.282;2023-04-15T14:23:38;8.77;;;3.93;;
1366;SDS011;16877;48.810;9.282;2023-04-15T14:26:06;6.83;;;4.30;;
1366;SDS011;16877;48.810;9.282;2023-04-15T14:28:35;5.60;;;3.60;;
1366;SDS011;16877;48.810;9.282;2023-04-15T14:31:03;6.53;;;3.30;;
1366;SDS011;16877;48.810;9.282;2023-04-15T14:33:30;7.60;;;3.40;;
1366;SDS011;16877;48.810;9.282;2023-04-15T14:35:58;6.60;;;3.30;;
1366;SDS011;16877;48.810;9.282;2023-04-15T14:38:40;8.30;;;2.87;;
1366;SDS011;16877;48.810;9.282;2023-04-15T14:41:08;7.30;;;3.53;;
1366;SDS011;16877;48.810;9.282;2023-04-15T14:43:37;4.53;;;2.57;;
1366;SDS011;16877;48.810;9.282;2023-04-15T14:46:05;6.47;;;2.47;;
1366;SDS011;16877;48.810;9.282;2023-04-15T14:48:33;4.73;;;2.63;;
1366;SDS011;16877;48.810;9.282;2023-04-15T14:51:01;5.20;;;2.97;;
1366;SDS011;16877;48.810;9.282;2023-04-15T14:53:28;3.53;;;2.53;;
1366;SDS011;16877;48.810;9.282;2023-04-15T14:55:56;4.00;;;2.30;;
1366;SDS011;16877;48.810;9.282;2023-04-15T14:58:23;3.20;;;1.43;;
1366;SDS011;16877;48.810;9.282;2023-04-15T15:00:52;2.70;;;1.37;;
1366;SDS011;16877;48.810;9.282;2023-04-15T15:03:19;2.83;;;1.27;;
1366;SDS011;16877;48.810;9.282;2023-04-15T15:05:47;2.97;;;1.07;;
1366;SDS011;16877;48.810;9.282;2023-04-15T15:08:15;2.37;;;1.30;;
1366;SDS011;16877;48.810;9.282;2023-04-15T15:10:42;2.00;;;0.80;;
1366;SDS011;16877;48.810;9.282;2023-04-15T15:13:10;2.50;;;1.07;;
1366;SDS011;16877;48.810;9.282;2023-04-15T15:15:41;2.60;;;1.30;;
1366;SDS011;16877;48.810;9.282;2023-04-15T15:18:11;2.67;;;1.00;;
1366;SDS011;16877;48.810;9.282;2023-04-15T15:20:38;2.60;;;1.40;;
1366;SDS011;16877;48.810;9.282;2023-04-15T15:23:08;2.00;;;1.00;;
1366;SDS011;16877;48.810;9.282;2023-04-15T15:25:35;2.43;;;1.10;;
1366;SDS011;16877;48.810;9.282;2023-04-15T15:28:03;2.00;;;1.00;;